Hang Gliding World Championship 2015

2015-02-28 to 2015-03-13

Overall T4

2015-03-05 T4

Race to Goal 107.1 km

official

No Leg Dist. Id Radius Open Close Coordinates Altitude
1 0.0 km D01235 1 m 12:30 14:30 Lat: 19.062000 Lon: -100.090500 m
2 SS 2.3 km A07216 37000 m 13:45 18:00 Lat: 19.319500 Lon: -100.279833 m
3 13.0 km B05262 400 m 13:45 18:00 Lat: 19.121333 Lon: -100.146333 m
4 27.4 km B01119 11000 m 13:45 18:00 Lat: 18.942167 Lon: -100.297500 m
5 55.6 km B07270 400 m 13:45 18:00 Lat: 19.118500 Lon: -99.974500 m
6 79.0 km A08248 3000 m 13:45 18:00 Lat: 19.319167 Lon: -100.084500 m
7 89.0 km B18215 1000 m 13:45 18:00 Lat: 19.304333 Lon: -100.204000 m
8 ES 107.1 km A03232 400 m 13:45 18:00 Lat: 19.259333 Lon: -100.024333 m
9 107.1 km A03232 399 m 13:45 18:00 Lat: 19.259333 Lon: -100.024333 m
StartGate(s): 13:45, 14:15

# Id Name Nat Glider Sponsor SS ES Time km/h Distance Dist.
Points
Lead.
Points
Time
Points
Arr.
Pos.
Points
Total
1 141 Christian CIECH M ITA Icaro 2000 Laminar AeCI/Icaro 2000/Woody Valley 13:45:00 16:02:23 02:17:23 45.8 107.13 378.7 103.4 434.9 77.7 995
2 167 Boisselier ANTOINE M FRA Icaro 2000 Laminar Icaro Skyline 13:45:00 16:04:20 02:19:20 45.2 107.13 378.7 108.7 401.3 74.8 964
3 189 Petr BENEŠ M CZE Aeros Combat 09 LAA CR 13:45:00 16:05:19 02:20:19 44.8 107.13 378.7 103.4 390.8 72.0 945
4 114 Glauco PINTO M BRA Icaro 2000 Laminar ABVL/X-WINGS 13:45:00 16:05:43 02:20:43 44.7 107.13 378.7 94.6 386.9 69.3 930
5 107 Alonzi MARIO M FRA Aeros Combat C ARMEE DE L'AIR 13:45:00 16:06:51 02:21:51 44.4 107.13 378.7 102.1 376.5 64.1 921
6 176 Manfred RUHMER M AUT Icaro 2000 Laminar Icaro2000, Woody Valley, Bräuniger 13:45:00 16:06:28 02:21:28 44.5 107.13 378.7 94.3 379.9 66.6 919
7 159 Christian VOIBLET M SUI Aeros Combat C Flytec 13:45:00 16:10:06 02:25:06 43.4 107.13 378.7 97.1 350.8 61.7 888
8 198 Attila BERTOK M HUN Moyes RX5 Moyes Delta Gliders 13:45:00 16:10:20 02:25:20 43.3 107.13 378.7 92.0 349.2 59.3 879
9 151 Davide GUIDUCCI M ITA Icaro 2000 Laminar Woody Walley 13:45:00 16:10:27 02:25:27 43.3 107.13 378.7 92.3 348.3 57.0 876
10 156 Suan SELENATI M ITA Wills Wing T2C FRIULI VENEZIA GIULIA/WOODY VALLEY/W W 13:45:00 16:10:32 02:25:32 43.2 107.13 378.7 93.4 347.7 54.8 875
11 160 Derreck TURNER M USA Moyes RX5 Fl Ridge flight park 13:45:00 16:10:39 02:25:39 43.2 107.13 378.7 89.2 346.9 50.7 866
12 144 Carl WALLBANK M GBR Moyes RX 3.5 Moyes UK 13:45:00 16:10:50 02:25:50 43.1 107.13 378.7 93.2 345.6 46.8 864
12 30 Alexandre MENARD M CAN Wills Wing T2C None 13:45:00 16:10:34 02:25:34 43.2 107.13 378.7 85.0 347.5 52.7 864
14 138 Christian PREININGER M AUT Icaro 2000 Laminar Icaro 2000 13:45:00 16:10:47 02:25:47 43.2 107.13 378.7 87.1 346.0 48.7 861
15 106 Jonny DURAND M AUS Moyes RX 3.5 Moyes Red Bull Blu Eye 13:45:00 16:11:20 02:26:20 43.0 107.13 378.7 95.2 342.1 40.0 856
16 122 Roland WOEHRLE M GER Moyes RX 3.5 Sparkasse Haslach/Zell; Skyline 13:45:00 16:10:53 02:25:53 43.1 107.13 378.7 85.5 345.3 45.0 855
17 177 Guy HUBBARD M AUS Moyes RS 4 Moyes 13:45:00 16:10:55 02:25:55 43.1 107.13 378.7 85.8 345.0 41.6 851
18 174 Steve BLENKINSOP M AUS Moyes RX 3.5 Moyes Delta Gliders 13:45:00 16:11:21 02:26:21 43.0 107.13 378.7 90.2 342.0 38.4 849
19 39 Erick SALGADO M MEX Moyes Litespeed S 4.5 CASA MADERO 13:45:00 16:10:54 02:25:54 43.1 107.13 378.7 81.0 345.1 43.2 848
20 182 Jonas LOBITZ M NZL Moyes RS 4 Moyes, Warren Windsports 13:45:00 16:12:35 02:27:35 42.6 107.13 378.7 92.2 333.7 34.2 839
21 135 Reisinger ROBERT M AUT Wills Wing T2C willswing 13:45:00 16:12:19 02:27:19 42.7 107.13 378.7 85.9 335.4 37.0 837
22 31 David SEGURA M MEX Moyes RX5 no 13:45:00 16:12:23 02:27:23 42.7 107.13 378.7 80.2 335.0 35.6 830
23 109 Matt BARKER M USA Wills Wing T2C Wills Wing 13:45:00 16:12:39 02:27:39 42.6 107.13 378.7 81.6 333.2 33.0 827
24 71 Achim VOLLMER M GER Aeros Combat 12.7 GT 13:45:00 16:13:23 02:28:23 42.4 107.13 378.7 88.2 328.4 30.6 826
25 70 Bruce BARMAKIAN M USA ? ? NA 13:45:00 16:13:17 02:28:17 42.4 107.13 378.7 84.4 329.1 31.7 824
26 137 Filippo OPPICI M ITA Wills Wing T2C Wills Wing 13:45:00 16:16:07 02:31:07 41.6 107.13 378.7 85.0 311.5 28.4 804
27 9 Gennadiy KHRAMOV M RUS Wills Wing T2C Deus 13:45:00 16:15:50 02:30:50 41.7 107.13 378.7 74.2 313.2 29.5 796
28 105 Zac MAJORS M USA Wills Wing T2C Wills Wing, Flytec 13:45:00 16:17:37 02:32:37 41.2 107.13 378.7 84.0 302.6 27.5 793
29 101 Robin HAMILTON M USA Moyes RX 3.5 NAA 13:45:00 16:17:57 02:32:57 41.1 107.13 378.7 82.3 300.7 26.5 788
30 102 Krzysztof GRZYB M USA Moyes RX 3.5 Moyes, QuestLift, CS LLc 13:45:00 16:17:58 02:32:58 41.1 107.13 378.7 82.2 300.6 25.6 787
31 57 Takashi SUNAMA M JPN Aeros Combat GT - 13:45:00 16:18:08 02:33:08 41.1 107.13 378.7 82.2 299.6 24.0 785
32 132 Yuji SUZUKI M JPN Moyes RX 3.5 WINDSPORT 13:45:00 16:18:06 02:33:06 41.1 107.13 378.7 79.1 299.8 24.8 782
33 142 Peter NEUENSCHWANDER M SUI Aeros Combat 13.5 AEROS 13:45:00 16:18:31 02:33:31 41.0 107.13 378.7 81.4 297.5 23.3 781
34 197 Franz HERRMANN M SUI Aeros Combat Aeros 13:45:00 16:18:43 02:33:43 40.9 107.13 378.7 80.1 296.3 22.6 778
35 80 Francois ISOARD M FRA Wills Wing T2C FFVL 13:45:00 16:19:03 02:34:03 40.8 107.13 378.7 80.6 294.4 21.3 775
36 187 Dan VYHNALIK M CZE Aeros Combat 13.5 GT LAA CR 13:45:00 16:19:18 02:34:18 40.8 107.13 378.7 81.3 293.0 20.8 774
37 53 Seppi Salvenmoser M AUT Moyes RX 3.5 RED BULL 13:45:00 16:19:31 02:34:31 40.7 107.13 378.7 81.4 291.8 20.2 772
38 45 Daniel VELEZ M COL Wills Wing T2C FEDEAEREOS 13:45:00 16:20:15 02:35:15 40.5 107.13 378.7 84.8 287.8 19.7 771
39 131 Shogo OTA M JPN Aeros Combat GT nissei 13:45:00 16:18:59 02:33:59 40.9 107.13 378.7 74.5 294.8 21.9 770
40 10 Rodolfo GOTÉS M MEX Wills Wing T2C Sensual Tea vuelolibre.mx 13:45:00 16:20:25 02:35:25 40.5 107.13 378.7 83.2 286.9 19.3 768
41 136 Grant CROSSINGHAM M GBR Moyes RX 3.5 Luisa Morales Rueda 13:45:00 16:22:14 02:37:14 40.0 107.13 378.7 78.2 277.1 18.5 753
41 146 Beat Howald M SUI Aeros Combat 12.7 C ROHN Qualität beim Strom 13:45:00 16:20:47 02:35:47 40.4 107.13 378.7 70.5 284.9 18.9 753
43 191 Vlastimil BARTAS M CZE Aeros Combat GT LAA Czech Republic 13:45:00 16:23:45 02:38:45 39.6 107.13 378.7 71.7 269.1 18.1 738
44 117 Fábio THOMAZ M BRA Moyes RX5 www.rooasadelta.com.br 13:45:00 16:23:55 02:38:55 39.6 107.13 378.7 68.7 268.3 17.8 734
45 193 Günther TSCHURNIG M AUT Icaro 2000 Laminar Z9 Wirth Austria 13:45:00 16:33:32 02:48:32 37.3 107.13 378.7 54.0 221.8 17.5 672
45 147 Fredy BIRCHER M SUI Moyes RX 3.5 SHV 13:45:00 16:35:51 02:50:51 36.8 107.13 378.7 65.1 211.3 17.2 672
47 168 Joel MIRÓN DE SOTO M Wills Wing T2C Zenith Aventura 13:45:00 16:36:08 02:51:08 36.8 107.13 378.7 63.2 210.1 17.0 669
48 113 Max TURIACO M BRA Wills Wing T2C Maxflyrio 13:45:00 16:40:23 02:55:23 35.9 107.13 378.7 68.0 191.6 16.8 655
49 92 Antonio José LETÓN M ESP Aeros Combat GT lc arquitectos 13:45:00 16:43:24 02:58:24 35.3 107.13 378.7 58.3 178.9 16.6 633
50 180 Trent BROWN M AUS Moyes RX 3.5 Moyes Delta Gliders 13:45:00 16:48:02 03:03:02 34.4 107.13 378.7 65.2 159.9 16.3 620
51 148 Balazs UJHELYI M HUN Moyes RS 4 no 13:45:00 16:45:42 03:00:42 34.8 107.13 378.7 45.9 169.4 16.4 610
52 140 Bill SODERQUIST M Moyes RS 3.5 Free Flight Parachutes 13:45:00 16:51:37 03:06:37 33.7 107.13 378.7 37.5 145.7 16.0 578
53 149 Valentino BAÙ M ITA Icaro 2000 Laminar 14.1 TERMCLIMA DUE CARRERE (PD) 13:45:00 16:51:06 03:06:06 33.8 107.13 378.7 34.2 147.7 16.1 577
54 47 Pedro L GARCIA M ESP Wills Wing T2C Wills Wing - Juaki Air 13:45:00 16:57:51 03:12:51 32.6 107.13 378.7 56.4 121.8 15.8 573
55 108 Aldo ROHLFS M MEX Wills Wing T2C 144 AMEX 13:45:00 16:56:31 03:11:31 32.9 107.13 378.7 33.3 126.8 15.9 555
56 91 Daniel MARTÍN MOTA M ESP Wills Wing T2C - 13:45:00 17:09:20 03:24:20 30.8 107.13 378.7 20.2 79.9 15.7 495
57 164 Nils VESK M AUS Moyes RX 3.5 my savings account 13:45:00 17:13:40 03:28:40 30.2 107.13 378.7 18.3 64.8 15.6 477
58 29 Pedro Alejandro MONTES GENTNER M MEX Aeros Combat GT Colima 13:45:00 17:22:48 03:37:48 28.9 107.13 378.7 14.8 33.8 15.6 443
59 123 Walter MAYER M AUT Moyes RX4 T-WM 13:45:00 101.33 367.0 58.9 426
60 178 Graham PHIPPS M GBR Wills Wing T2C 144 Cloud 9 Hang Gliding & Paragliding 13:45:00 102.80 371.0 53.9 425
61 121 Gordon RIGG M GBR Moyes RX 3.5 Open to Offers 13:45:00 102.36 370.0 50.9 421
62 183 Glen MCFARLANE M AUS Wills Wing T2C Willswings 13:45:00 93.51 334.8 51.7 387
63 112 Elmar CHRISTL M LIE Moyes RX4 Christl SpiceTechnologie 13:45:00 100.60 364.4 12.9 377
64 154 Shigeto ISHIZAKA M Wills Wing T2C None 13:45:00 90.59 321.4 29.9 351
65 150 Yoshikatsu TONOMURA M JPN Moyes RX3 none 13:45:00 90.04 319.2 11.1 330
65 68 Joerg BAJEWSKI M GER Wills Wing T2C TIMEZONE, ANSMANN 13:45:00 92.38 329.5 330
67 119 Steven BLACKLER M GBR Moyes RS 3.5 nil 13:45:00 84.60 296.4 23.5 320
68 69 Gerd DÖNHUBER M GER Moyes RX 3.5 Skyline Flightgear 13:45:00 77.40 269.1 14.7 284
69 190 Jesus Maria HERNANDO M ESP Wills Wing T2C NO 13:45:00 78.57 273.2 9.1 282
70 93 Alvaro IDÍGORAS MOLINA M ESP Wills Wing T2C 144 Juakiair 13:45:00 78.54 273.1 273
71 139 Tullio GERVASONI M ITA Wills Wing T2C GAP 13:45:00 75.47 259.4 8.8 268
72 28 Tormod HELGESEN M NOR Moyes RX4 None 13:45:00 76.98 267.4 267
73 165 Yon BÁRCENA M Wills Wing T2C _ 13:45:00 76.21 263.7 264
74 192 Manuel RIVERO LASCURAIN M Wills Wing T2C None 13:45:00 75.94 262.3 262
75 129 Hiroshi ONUMA M JPN Icaro 2000 Laminar ? 13:45:00 75.66 260.6 261
76 110 Rodrigo (noni) ALVA GOMEZ M MEX Wills Wing T2C VUELOLIBRE.MX 13:45:00 60.98 187.8 188
76 118 Wayne THOMPSON M GBR ? ? Anyone who offers 13:45:00 61.12 188.2 188
78 195 Francoise DIEUZEIDE-BANET F Moyes RX3 no 13:45:00 54.55 168.8 169
79 155 Nobuhiro OKADA M Wills Wing T2 nothing 13:45:00 53.40 164.7 165
80 86 Jose Maria IRIARTE M ESP Aeros Combat 12.4 GT españa 13:45:00 53.18 163.9 164
81 158 Eduardo PANUCO M Aeros Combat 13.5 GT SMG 13:45:00 52.77 162.0 162
82 166 Alain WOEFFRAY M SUI Wills Wing T2C - 13:45:00 49.73 146.4 146
83 133 Akira MUTAZONO M JPN Aeros Combat GT noe 13:45:00 47.77 137.0 137
84 171 Zin PIERO M FRA Icaro 2000 Laminar Z9 14.1 no sponsors 13:45:00 26.46 75.5 76
85 152 Elek CZIGLER M HUN Aeros Combat GT ORIAS 13:45:00 17.09 53.4 53
86 27 Johnny NILSSEN M NOR Airborne Rev 2 None 13:45:00 13.63 44.4 44
87 127 Corinna SCHWIEGERSHAUSEN F GER Moyes RX3 Red Bull, adidas, Moyes, Icebreaker, Flytec, W 13:45:00 13.04 42.7 43
88 169 Dale REGEHR M CAN Moyes RX4 Na 5.00 14.8 15
89 40 John THEORET M CAN Wills Wing T2C none DNF 0.0 0
89 48 Claudia MEJIA DE LA PAVA F COL Wills Wing T2C FEDEAEREOS DNF 0.0 0

Pilots absent from task (ABS)

Id Name
79 Laurent THEVENOT
116 Eduardo OLIVEIRA
172 Christian POLLET
188 Jiri GUT

Pilots not yet processed (NYP)

Id Name
134 André DJAMARANI

Task statistics

param value
ss_distance 104.874
task_distance 107.131
launch_to_ess_distance 107.13
no_of_pilots_present 90
no_of_pilots_flying 88
no_of_pilots_lo 30
no_of_pilots_reaching_nom_dist 75
no_of_pilots_reaching_es 58
no_of_pilots_reaching_goal 58
sum_flown_distance 8192.36299999999
best_dist 107.131
best_time 2.28972222222222
worst_time 3.63
no_of_pilots_in_competition 95
no_of_pilots_landed_before_stop 0
sum_dist_over_min 7755.365
sum_real_dist_over_min 7755.365
sum_flown_distances 8192.363
best_real_dist 107.131
last_start_time 2015-03-05T13:45:00-06:00
first_start_time 2015-03-05T13:45:00-06:00
first_finish_time 2015-03-05T16:02:23-06:00
max_time_to_get_time_points 3.80290503411979
no_of_pilots_with_time_points 58
goalratio 0.659090909090909
arrival_weight 0.0776651880047896
departure_weight 0
leading_weight 0.108731263206705
time_weight 0.434925052826822
distance_weight 0.378678495961683
smallest_leading_coefficient 2.40628028487415
available_points_distance 378.678495961683
available_points_time 434.925052826822
available_points_departure 0
available_points_leading 108.731263206705
available_points_arrival 77.6651880047896
time_validity 1
launch_validity 1
distance_validity 1
stop_validity 1
day_quality 1
ftv_day_validity 1
time_points_stop_correction 0

Scoring formula settings

param value
id GAP2014
min_dist 5
nom_dist 75
nom_time 2
nom_launch 0.96
nom_goal 0.25
bonus_gr 5
jump_the_gun_factor 3
jump_the_gun_max 900
normalize_1000_before_day_quality 0
time_points_if_not_in_goal 0
use_1000_points_for_max_day_quality 0
use_arrival_position_points 1
use_arrival_time_points 0
use_departure_points 0
use_difficulty_for_distance_points 1
use_distance_points 1
use_distance_squared_for_LC 0
use_leading_points 1
use_semi_circle_control_zone_for_goal_line 0
use_time_points 1
min_time_span_for_valid_task 90
score_back_time 0
use_arrival_altitude_points 0
final_glide_decelerator none
no_final_glide_decelerator_reason NA
Report created: 2015-03-11T15:06:12-06:00